createdAt,value
2017-07-27T00:00:21.968Z,19.50
2017-07-27T00:02:50.274Z,19.50
2017-07-27T00:05:18.545Z,19.50
2017-07-27T00:07:46.820Z,19.60
2017-07-27T00:10:15.153Z,19.50
2017-07-27T00:12:43.854Z,19.60
2017-07-27T00:15:12.112Z,19.60
2017-07-27T00:17:40.409Z,19.40
2017-07-27T00:20:08.704Z,19.40
2017-07-27T00:22:36.959Z,19.30
2017-07-27T00:25:05.298Z,19.20
2017-07-27T00:27:33.569Z,19.00
2017-07-27T00:30:01.837Z,18.90
2017-07-27T00:32:30.124Z,18.90
2017-07-27T00:34:58.416Z,18.90
2017-07-27T00:37:25.908Z,18.90
2017-07-27T00:39:54.216Z,18.80
2017-07-27T00:42:22.471Z,18.80
2017-07-27T00:44:50.744Z,18.80
2017-07-27T00:47:19.046Z,18.80
2017-07-27T00:49:47.860Z,18.90
2017-07-27T00:52:16.125Z,19.10
2017-07-27T00:54:44.432Z,19.00
2017-07-27T00:57:12.707Z,19.00
2017-07-27T00:59:40.204Z,19.00
2017-07-27T01:02:08.516Z,19.00
2017-07-27T01:04:36.780Z,19.00
2017-07-27T01:07:05.042Z,19.10
2017-07-27T01:09:33.338Z,19.10
2017-07-27T01:12:01.604Z,19.10
2017-07-27T01:14:29.861Z,19.00
2017-07-27T01:16:58.163Z,19.00
2017-07-27T01:19:26.419Z,19.00
2017-07-27T01:21:54.684Z,19.00
2017-07-27T01:24:22.981Z,19.10
2017-07-27T01:26:51.237Z,19.10
2017-07-27T01:29:19.497Z,19.10
2017-07-27T01:31:47.801Z,19.00
2017-07-27T01:34:16.064Z,18.90
2017-07-27T01:36:44.321Z,18.90
2017-07-27T01:39:12.608Z,19.00
2017-07-27T01:41:41.282Z,19.10
2017-07-27T01:44:09.569Z,19.00
2017-07-27T01:46:38.377Z,19.00
2017-07-27T01:49:06.656Z,19.00
2017-07-27T01:51:34.926Z,19.00
2017-07-27T01:54:03.233Z,19.00
2017-07-27T01:56:37.409Z,19.00
2017-07-27T01:59:05.707Z,19.10
2017-07-27T02:01:33.992Z,19.00
2017-07-27T02:04:02.277Z,19.00
2017-07-27T02:06:30.585Z,19.00
2017-07-27T02:08:58.840Z,19.00
2017-07-27T02:11:29.938Z,18.90
2017-07-27T02:13:58.205Z,18.90
2017-07-27T02:16:26.470Z,18.90
2017-07-27T02:18:54.777Z,18.90
2017-07-27T02:21:23.038Z,18.90
2017-07-27T02:23:51.301Z,18.90
2017-07-27T02:26:19.601Z,18.80
2017-07-27T02:28:47.864Z,18.80
2017-07-27T02:31:16.130Z,18.80
2017-07-27T02:33:44.433Z,18.90
2017-07-27T02:36:12.692Z,18.80
2017-07-27T02:38:40.984Z,18.90
2017-07-27T02:41:09.268Z,18.80
2017-07-27T02:43:37.527Z,18.80
2017-07-27T02:46:05.839Z,18.90
2017-07-27T02:48:34.106Z,18.90
2017-07-27T02:51:02.393Z,18.90
2017-07-27T02:53:30.689Z,18.90
2017-07-27T02:55:58.958Z,19.00
2017-07-27T02:58:27.216Z,18.90
2017-07-27T03:00:55.500Z,18.80
2017-07-27T03:03:23.756Z,18.90
2017-07-27T03:05:52.053Z,19.00
2017-07-27T03:08:20.359Z,18.90
2017-07-27T03:10:48.631Z,18.90
2017-07-27T03:13:16.891Z,18.80
2017-07-27T03:15:45.181Z,18.80
2017-07-27T03:18:12.675Z,18.80
2017-07-27T03:20:40.971Z,18.90
2017-07-27T03:23:09.234Z,18.90
2017-07-27T03:25:37.501Z,18.80
2017-07-27T03:28:05.790Z,18.80
2017-07-27T03:30:34.083Z,18.80
2017-07-27T03:33:02.384Z,18.70
2017-07-27T03:35:30.705Z,18.70
2017-07-27T03:37:58.967Z,18.70
2017-07-27T03:40:27.254Z,18.70
2017-07-27T03:42:55.536Z,18.80
2017-07-27T03:45:23.801Z,18.80
2017-07-27T03:47:52.103Z,18.80
2017-07-27T03:50:20.385Z,18.90
2017-07-27T03:52:48.649Z,18.80
2017-07-27T03:55:16.959Z,18.90
2017-07-27T03:57:45.220Z,18.90
2017-07-27T04:00:13.480Z,18.90
2017-07-27T04:02:41.783Z,18.90
2017-07-27T04:05:10.044Z,18.80
2017-07-27T04:07:38.309Z,18.80
2017-07-27T04:10:06.601Z,18.80
2017-07-27T04:12:34.884Z,18.90
2017-07-27T04:15:03.181Z,18.90
2017-07-27T04:17:31.450Z,18.90
2017-07-27T04:19:59.745Z,18.90
2017-07-27T04:22:28.004Z,18.90
2017-07-27T04:24:55.528Z,18.90
2017-07-27T04:27:23.820Z,18.80
2017-07-27T04:29:52.075Z,18.90
2017-07-27T04:32:20.348Z,18.80
2017-07-27T04:34:48.641Z,18.90
2017-07-27T04:37:16.904Z,18.90
2017-07-27T04:39:45.169Z,18.90
2017-07-27T04:42:13.457Z,18.90
2017-07-27T04:44:41.720Z,18.90
2017-07-27T04:47:10.010Z,18.90
2017-07-27T04:49:38.263Z,18.90
2017-07-27T04:52:06.552Z,19.00
2017-07-27T04:54:34.817Z,19.10
2017-07-27T04:57:14.990Z,19.20
2017-07-27T04:59:43.248Z,19.00
2017-07-27T05:02:11.512Z,19.00
2017-07-27T05:04:39.804Z,19.10
2017-07-27T05:07:07.326Z,19.10
2017-07-27T05:09:35.628Z,19.20
2017-07-27T05:12:03.885Z,19.20
2017-07-27T05:14:32.153Z,19.10
2017-07-27T05:17:00.448Z,19.20
2017-07-27T05:19:28.720Z,19.20
2017-07-27T05:21:56.981Z,19.30
2017-07-27T05:24:26.237Z,19.30
2017-07-27T05:26:54.500Z,19.30
2017-07-27T05:29:22.793Z,19.30
2017-07-27T05:31:51.107Z,19.30
2017-07-27T05:34:19.365Z,19.30
2017-07-27T05:36:47.664Z,19.20
2017-07-27T05:39:15.927Z,19.20
2017-07-27T05:41:44.185Z,19.20
2017-07-27T05:44:12.482Z,19.10
2017-07-27T05:46:41.707Z,19.10
2017-07-27T05:49:10.008Z,19.10
2017-07-27T05:51:38.276Z,19.30
2017-07-27T05:54:06.537Z,19.30
2017-07-27T05:56:34.831Z,19.30
2017-07-27T05:59:03.096Z,19.30
2017-07-27T06:01:31.410Z,19.30
2017-07-27T06:03:59.676Z,19.30
2017-07-27T06:06:27.941Z,19.40
2017-07-27T06:08:56.278Z,19.50
2017-07-27T06:11:24.552Z,19.40
2017-07-27T06:13:52.816Z,19.40
2017-07-27T06:16:21.132Z,19.40
2017-07-27T06:18:49.429Z,19.40
2017-07-27T06:21:17.694Z,19.30
2017-07-27T06:23:46.011Z,19.30
2017-07-27T06:26:14.306Z,19.30
2017-07-27T06:28:42.563Z,19.30
2017-07-27T06:31:10.857Z,19.20
2017-07-27T06:33:39.120Z,19.30
2017-07-27T06:36:07.408Z,19.30
2017-07-27T06:38:35.716Z,19.30
2017-07-27T06:41:03.977Z,19.50
2017-07-27T06:43:32.240Z,19.40
2017-07-27T06:46:00.546Z,19.40
2017-07-27T06:48:28.808Z,19.50
2017-07-27T06:50:57.081Z,19.50
2017-07-27T06:53:25.376Z,19.50
2017-07-27T06:55:53.664Z,19.50
2017-07-27T06:58:21.927Z,19.40
2017-07-27T07:00:51.177Z,19.60
2017-07-27T07:03:19.499Z,19.60
2017-07-27T07:05:47.765Z,19.50
2017-07-27T07:08:16.066Z,19.40
2017-07-27T07:10:44.369Z,19.40
2017-07-27T07:13:12.628Z,19.30
2017-07-27T07:15:40.892Z,19.40
2017-07-27T07:18:09.185Z,19.40
2017-07-27T07:20:37.484Z,19.40
2017-07-27T07:23:05.748Z,19.50
2017-07-27T07:25:34.041Z,19.60
2017-07-27T07:28:02.302Z,19.60
2017-07-27T07:30:30.596Z,19.60
2017-07-27T07:32:58.853Z,19.60
2017-07-27T07:35:27.153Z,19.70
2017-07-27T07:37:55.419Z,19.70
2017-07-27T07:40:23.680Z,19.80
2017-07-27T07:42:51.984Z,19.80
2017-07-27T07:45:20.249Z,19.80
2017-07-27T07:47:48.507Z,19.70
2017-07-27T07:50:16.807Z,19.80
2017-07-27T07:52:45.071Z,20.00
2017-07-27T07:55:13.325Z,20.20
2017-07-27T07:57:41.619Z,20.40
2017-07-27T08:00:09.889Z,20.30
2017-07-27T08:02:38.182Z,20.40
2017-07-27T08:05:06.445Z,20.50
2017-07-27T08:07:34.745Z,20.50
2017-07-27T08:10:14.970Z,20.60
2017-07-27T08:12:43.272Z,20.60
2017-07-27T08:15:11.541Z,20.60
2017-07-27T08:17:39.801Z,20.50
2017-07-27T08:20:08.104Z,20.40
2017-07-27T08:22:36.363Z,20.40
2017-07-27T08:25:04.673Z,20.40
2017-07-27T08:27:32.190Z,20.40
2017-07-27T08:30:00.462Z,20.50
2017-07-27T08:32:28.761Z,20.40
2017-07-27T08:34:57.056Z,20.50
2017-07-27T08:37:25.348Z,20.40
2017-07-27T08:39:53.656Z,20.30
2017-07-27T08:42:21.907Z,20.40
2017-07-27T08:44:50.171Z,20.40
2017-07-27T08:47:18.463Z,20.40
2017-07-27T08:49:46.766Z,20.40
2017-07-27T08:52:15.032Z,20.40
2017-07-27T08:54:43.301Z,20.50
2017-07-27T08:57:11.641Z,20.50
2017-07-27T08:59:39.902Z,20.50
2017-07-27T09:02:08.178Z,20.60
2017-07-27T09:04:36.482Z,20.70
2017-07-27T09:07:04.804Z,20.90
2017-07-27T09:09:33.080Z,21.10
2017-07-27T09:12:01.351Z,21.30
2017-07-27T09:14:29.660Z,21.40
2017-07-27T09:16:57.932Z,21.30
2017-07-27T09:19:26.238Z,21.30
2017-07-27T09:21:54.503Z,21.30
2017-07-27T09:24:22.772Z,21.40
2017-07-27T09:26:51.153Z,21.40
2017-07-27T09:29:19.421Z,21.30
2017-07-27T09:31:48.691Z,21.20
2017-07-27T09:34:17.008Z,21.10
2017-07-27T09:36:45.259Z,21.20
2017-07-27T09:39:13.520Z,21.20
2017-07-27T09:41:41.813Z,21.10
2017-07-27T09:44:10.081Z,21.20
2017-07-27T09:46:38.381Z,21.00
2017-07-27T09:49:06.649Z,20.90
2017-07-27T09:51:34.920Z,21.00
2017-07-27T09:54:03.220Z,20.90
2017-07-27T09:56:38.730Z,20.80
2017-07-27T09:59:07.547Z,20.80
2017-07-27T10:01:35.820Z,20.90
2017-07-27T10:04:04.129Z,20.90
2017-07-27T10:06:32.393Z,20.80
2017-07-27T10:09:00.656Z,20.90
2017-07-27T10:11:29.433Z,21.00
2017-07-27T10:13:57.707Z,21.10
2017-07-27T10:16:25.980Z,21.10
2017-07-27T10:18:54.297Z,21.10
2017-07-27T10:21:22.566Z,21.10
2017-07-27T10:23:50.892Z,21.10
2017-07-27T10:26:19.192Z,21.20
2017-07-27T10:28:47.479Z,21.20
2017-07-27T10:31:15.802Z,21.40
2017-07-27T10:33:44.073Z,21.40
2017-07-27T10:36:12.385Z,21.30
2017-07-27T10:38:40.645Z,21.40
2017-07-27T10:41:08.149Z,21.40
2017-07-27T10:43:36.466Z,21.30
2017-07-27T10:46:04.744Z,21.20
2017-07-27T10:48:33.008Z,21.20
2017-07-27T10:51:01.313Z,21.20
2017-07-27T10:53:29.605Z,21.10
2017-07-27T10:55:57.925Z,21.00
2017-07-27T10:58:26.184Z,21.00
2017-07-27T11:00:54.451Z,21.10
2017-07-27T11:03:22.751Z,21.10
2017-07-27T11:05:50.248Z,21.10
2017-07-27T11:08:18.557Z,21.00
2017-07-27T11:10:46.862Z,21.00
2017-07-27T11:13:15.154Z,20.90
2017-07-27T11:15:43.473Z,21.00
2017-07-27T11:18:11.007Z,21.00
2017-07-27T11:20:39.285Z,21.20
2017-07-27T11:23:07.595Z,21.10
2017-07-27T11:25:35.880Z,21.10
2017-07-27T11:28:04.180Z,21.00
2017-07-27T11:30:32.510Z,21.10
2017-07-27T11:33:00.823Z,21.40
2017-07-27T11:35:29.156Z,21.50
2017-07-27T11:37:57.442Z,21.50
2017-07-27T11:40:25.735Z,21.60
2017-07-27T11:42:54.054Z,21.70
2017-07-27T11:45:22.335Z,21.80
2017-07-27T11:47:50.651Z,22.00
2017-07-27T11:50:18.928Z,21.90
2017-07-27T11:52:47.249Z,22.00
2017-07-27T11:55:15.578Z,22.00
2017-07-27T11:57:43.897Z,21.90
2017-07-27T12:00:12.185Z,21.80
2017-07-27T12:02:40.464Z,22.00
2017-07-27T12:05:08.769Z,22.10
2017-07-27T12:07:37.042Z,22.40
2017-07-27T12:10:05.334Z,22.40
2017-07-27T12:12:33.608Z,22.30
2017-07-27T12:15:01.904Z,22.20
2017-07-27T12:17:30.191Z,22.10
2017-07-27T12:19:58.500Z,22.00
2017-07-27T12:22:26.800Z,22.10
2017-07-27T12:24:55.109Z,22.00
2017-07-27T12:27:23.440Z,22.10
2017-07-27T12:29:51.741Z,22.10
2017-07-27T12:32:20.008Z,22.00
2017-07-27T12:34:48.297Z,22.00
2017-07-27T12:37:16.593Z,21.80
2017-07-27T12:39:44.110Z,21.80
2017-07-27T12:42:12.390Z,21.80
2017-07-27T12:44:40.700Z,21.80
2017-07-27T12:47:08.972Z,21.80
2017-07-27T12:49:37.239Z,21.90
2017-07-27T12:52:05.549Z,21.80
2017-07-27T12:54:33.858Z,21.90
2017-07-27T12:57:02.159Z,21.90
2017-07-27T12:59:30.468Z,22.00
2017-07-27T13:01:58.743Z,22.00
2017-07-27T13:04:27.022Z,22.00
2017-07-27T13:06:55.330Z,22.10
2017-07-27T13:09:23.601Z,22.10
2017-07-27T13:11:51.885Z,21.80
2017-07-27T13:14:20.227Z,21.70
2017-07-27T13:16:48.492Z,21.50
2017-07-27T13:19:16.753Z,21.50
2017-07-27T13:21:45.049Z,21.60
2017-07-27T13:24:13.327Z,21.70
2017-07-27T13:26:41.635Z,21.80
2017-07-27T13:29:09.898Z,22.00
2017-07-27T13:31:38.170Z,22.00
2017-07-27T13:34:06.500Z,22.10
2017-07-27T13:36:34.792Z,22.10
2017-07-27T13:39:03.062Z,22.20
2017-07-27T13:41:31.357Z,22.20
2017-07-27T13:43:59.638Z,22.30
2017-07-27T13:46:27.945Z,22.50
2017-07-27T13:48:56.220Z,22.50
2017-07-27T13:51:24.486Z,22.40
2017-07-27T13:53:52.790Z,22.30
2017-07-27T13:56:21.061Z,22.20
2017-07-27T13:58:49.367Z,22.00
2017-07-27T14:01:17.645Z,21.80
2017-07-27T14:03:45.918Z,21.70
2017-07-27T14:06:14.214Z,21.80
2017-07-27T14:08:41.748Z,21.70
2017-07-27T14:11:10.009Z,21.70
2017-07-27T14:13:38.269Z,21.80
2017-07-27T14:16:06.614Z,21.80
2017-07-27T14:18:34.893Z,21.60
2017-07-27T14:21:03.162Z,21.60
2017-07-27T14:23:31.462Z,21.50
2017-07-27T14:25:59.730Z,21.40
2017-07-27T14:28:28.019Z,21.20
2017-07-27T14:30:56.276Z,21.20
2017-07-27T14:33:24.568Z,21.20
2017-07-27T14:35:52.874Z,21.30
2017-07-27T14:38:21.144Z,21.40
2017-07-27T14:40:49.437Z,21.50
2017-07-27T14:43:17.709Z,21.50
2017-07-27T14:45:46.012Z,21.70
2017-07-27T14:48:14.276Z,21.70
2017-07-27T14:50:42.541Z,21.90
2017-07-27T14:53:10.836Z,21.90
2017-07-27T14:55:39.095Z,22.10
2017-07-27T14:58:07.389Z,22.50
2017-07-27T15:00:35.649Z,22.60
2017-07-27T15:03:03.953Z,22.70
2017-07-27T15:05:32.208Z,22.60
2017-07-27T15:08:00.483Z,22.60
2017-07-27T15:10:28.788Z,22.50
2017-07-27T15:12:57.056Z,22.60
2017-07-27T15:15:25.317Z,22.70
2017-07-27T15:17:53.618Z,22.80
2017-07-27T15:20:21.884Z,22.90
2017-07-27T15:22:50.177Z,22.80
2017-07-27T15:25:18.435Z,22.40
2017-07-27T15:27:46.729Z,22.40
2017-07-27T15:30:15.025Z,22.50
2017-07-27T15:32:43.293Z,22.50
2017-07-27T15:35:11.631Z,22.40
2017-07-27T15:37:39.893Z,22.50
2017-07-27T15:40:08.173Z,22.60
2017-07-27T15:42:36.508Z,22.50
2017-07-27T15:45:04.008Z,22.50
2017-07-27T15:47:32.300Z,22.10
2017-07-27T15:50:00.633Z,22.00
2017-07-27T15:52:28.995Z,22.00
2017-07-27T15:54:56.496Z,22.00
2017-07-27T15:57:24.760Z,22.20
2017-07-27T15:59:53.064Z,22.00
2017-07-27T16:02:21.333Z,21.90
2017-07-27T16:04:49.654Z,21.80
2017-07-27T16:07:17.930Z,21.80
2017-07-27T16:09:45.457Z,21.80
2017-07-27T16:12:13.822Z,21.80
2017-07-27T16:14:42.100Z,21.80
2017-07-27T16:17:10.377Z,21.90
2017-07-27T16:19:38.669Z,21.90
2017-07-27T16:22:06.944Z,22.00
2017-07-27T16:24:35.253Z,22.00
2017-07-27T16:27:04.498Z,21.80
2017-07-27T16:29:32.781Z,21.90
2017-07-27T16:32:01.058Z,22.00
2017-07-27T16:34:29.365Z,21.90
2017-07-27T16:36:57.671Z,21.90
2017-07-27T16:39:25.934Z,21.80
2017-07-27T16:41:54.206Z,21.80
2017-07-27T16:44:22.525Z,21.90
2017-07-27T16:46:50.808Z,22.10
2017-07-27T16:49:19.076Z,22.10
2017-07-27T16:51:47.389Z,22.00
2017-07-27T16:54:15.656Z,22.20
2017-07-27T16:56:43.939Z,22.10
2017-07-27T16:59:12.245Z,22.10
2017-07-27T17:01:40.507Z,21.90
2017-07-27T17:04:08.817Z,21.80
2017-07-27T17:06:37.092Z,21.60
2017-07-27T17:09:05.371Z,21.60
2017-07-27T17:11:33.668Z,21.70
2017-07-27T17:14:01.946Z,21.70
2017-07-27T17:16:30.273Z,21.60
2017-07-27T17:18:58.553Z,21.80
2017-07-27T17:21:26.830Z,21.70
2017-07-27T17:23:55.150Z,21.80
2017-07-27T17:26:23.432Z,21.90
2017-07-27T17:28:51.740Z,21.90
2017-07-27T17:31:20.039Z,21.90
2017-07-27T17:33:48.368Z,22.00
2017-07-27T17:36:16.646Z,21.80
2017-07-27T17:38:44.969Z,21.80
2017-07-27T17:41:13.296Z,21.70
2017-07-27T17:43:41.552Z,21.60
2017-07-27T17:46:09.822Z,21.40
2017-07-27T17:48:38.144Z,21.30
2017-07-27T17:51:06.431Z,21.20
2017-07-27T17:53:34.725Z,21.10
2017-07-27T17:56:03.030Z,21.00
2017-07-27T17:58:31.313Z,21.00
2017-07-27T18:00:59.628Z,21.00
2017-07-27T18:03:27.949Z,20.90
2017-07-27T18:05:56.306Z,20.90
2017-07-27T18:08:24.722Z,21.00
2017-07-27T18:10:53.025Z,21.00
2017-07-27T18:13:21.334Z,21.00
2017-07-27T18:15:49.637Z,21.00
2017-07-27T18:18:17.900Z,21.00
2017-07-27T18:20:46.212Z,21.00
2017-07-27T18:23:14.529Z,21.00
2017-07-27T18:25:42.801Z,21.00
2017-07-27T18:28:11.080Z,21.00
2017-07-27T18:30:39.386Z,21.10
2017-07-27T18:33:07.672Z,21.00
2017-07-27T18:35:35.989Z,21.00
2017-07-27T18:38:04.260Z,20.90
2017-07-27T18:40:32.566Z,20.90
2017-07-27T18:43:00.865Z,20.90
2017-07-27T18:45:29.145Z,20.80
2017-07-27T18:47:57.479Z,20.80
2017-07-27T18:50:25.780Z,20.80
2017-07-27T18:52:54.093Z,20.70
2017-07-27T18:55:22.404Z,20.80
2017-07-27T18:57:50.668Z,20.70
2017-07-27T19:00:18.973Z,20.70
2017-07-27T19:02:47.290Z,20.60
2017-07-27T19:05:14.847Z,20.60
2017-07-27T19:07:43.161Z,20.50
2017-07-27T19:10:11.444Z,20.40
2017-07-27T19:12:39.812Z,20.40
2017-07-27T19:15:08.092Z,20.30
2017-07-27T19:17:36.360Z,20.30
2017-07-27T19:20:04.671Z,20.40
2017-07-27T19:22:32.984Z,20.30
2017-07-27T19:25:01.256Z,20.20
2017-07-27T19:27:29.578Z,20.20
2017-07-27T19:29:57.882Z,20.20
2017-07-27T19:32:26.149Z,20.10
2017-07-27T19:34:54.457Z,20.00
2017-07-27T19:37:22.746Z,19.90
2017-07-27T19:39:51.041Z,19.90
2017-07-27T19:42:19.364Z,19.80
2017-07-27T19:44:47.625Z,19.80
2017-07-27T19:47:15.895Z,19.70
2017-07-27T19:49:44.194Z,19.70
2017-07-27T19:52:12.493Z,19.60
2017-07-27T19:54:40.830Z,19.60
2017-07-27T19:57:09.102Z,19.60
2017-07-27T19:59:37.369Z,19.50
2017-07-27T20:02:05.656Z,19.50
2017-07-27T20:04:33.935Z,19.40
2017-07-27T20:07:01.468Z,19.40
2017-07-27T20:09:29.755Z,19.40
2017-07-27T20:11:58.070Z,19.40
2017-07-27T20:14:26.341Z,19.30
2017-07-27T20:16:54.645Z,19.20
2017-07-27T20:19:22.182Z,19.20
2017-07-27T20:21:50.472Z,19.00
2017-07-27T20:24:18.770Z,19.00
2017-07-27T20:26:47.048Z,18.90
2017-07-27T20:29:15.378Z,18.90
2017-07-27T20:31:43.643Z,18.90
2017-07-27T20:34:11.910Z,18.80
2017-07-27T20:36:40.214Z,18.80
2017-07-27T20:39:08.515Z,18.80
2017-07-27T20:41:36.791Z,18.80
2017-07-27T20:44:05.102Z,18.70
2017-07-27T20:46:33.368Z,18.70
2017-07-27T20:49:01.672Z,18.70
2017-07-27T20:51:29.986Z,18.60
2017-07-27T20:53:58.296Z,18.70
2017-07-27T20:56:26.594Z,18.70
2017-07-27T20:58:54.866Z,18.70
2017-07-27T21:01:23.169Z,18.70
2017-07-27T21:03:51.440Z,18.60
2017-07-27T21:06:19.704Z,18.60
2017-07-27T21:08:47.992Z,18.50
2017-07-27T21:11:16.252Z,18.50
2017-07-27T21:13:44.575Z,18.50
2017-07-27T21:16:12.848Z,18.50
2017-07-27T21:18:41.122Z,18.40
2017-07-27T21:21:09.416Z,18.40
2017-07-27T21:23:37.673Z,18.40
2017-07-27T21:26:05.968Z,18.40
2017-07-27T21:28:34.234Z,18.40
2017-07-27T21:31:02.538Z,18.30
2017-07-27T21:33:30.830Z,18.40
2017-07-27T21:35:59.089Z,18.50
2017-07-27T21:38:27.389Z,18.50
2017-07-27T21:40:55.682Z,18.50
2017-07-27T21:43:23.948Z,18.40
2017-07-27T21:45:52.264Z,18.40
2017-07-27T21:48:20.531Z,18.50
2017-07-27T21:50:48.798Z,18.40
2017-07-27T21:53:17.099Z,18.40
2017-07-27T21:55:45.364Z,18.40
2017-07-27T21:58:13.625Z,18.30
2017-07-27T22:00:41.916Z,18.40
2017-07-27T22:03:10.171Z,18.40
2017-07-27T22:05:38.469Z,18.40
2017-07-27T22:08:06.741Z,18.30
2017-07-27T22:10:35.038Z,18.30
2017-07-27T22:13:03.339Z,18.40
2017-07-27T22:15:31.638Z,18.40
2017-07-27T22:17:59.926Z,18.40
2017-07-27T22:20:28.196Z,18.40
2017-07-27T22:22:56.494Z,18.40
2017-07-27T22:25:24.781Z,18.30
2017-07-27T22:27:53.044Z,18.30
2017-07-27T22:30:21.352Z,18.40
2017-07-27T22:32:49.616Z,18.20
2017-07-27T22:35:17.874Z,18.20
2017-07-27T22:37:46.188Z,18.20
2017-07-27T22:40:14.460Z,18.10
2017-07-27T22:42:42.734Z,18.10
2017-07-27T22:45:11.028Z,18.10
2017-07-27T22:47:39.292Z,18.10
2017-07-27T22:50:06.833Z,18.10
2017-07-27T22:52:35.105Z,18.20
2017-07-27T22:55:03.361Z,18.20
2017-07-27T22:57:31.655Z,18.20
2017-07-27T22:59:59.923Z,18.20
2017-07-27T23:02:28.230Z,18.30
2017-07-27T23:04:56.498Z,18.30
2017-07-27T23:07:24.765Z,18.30
2017-07-27T23:09:53.064Z,18.30
2017-07-27T23:12:21.329Z,18.30
2017-07-27T23:14:49.653Z,18.30
2017-07-27T23:17:17.929Z,18.20
2017-07-27T23:19:46.192Z,18.30
2017-07-27T23:22:15.425Z,18.20
2017-07-27T23:24:43.686Z,18.30
2017-07-27T23:27:12.001Z,18.30
2017-07-27T23:29:40.261Z,18.20
2017-07-27T23:32:08.538Z,18.20
2017-07-27T23:34:36.851Z,18.20
2017-07-27T23:37:05.132Z,18.10
2017-07-27T23:39:32.639Z,18.10
2017-07-27T23:42:00.944Z,18.10
2017-07-27T23:44:29.209Z,18.10
2017-07-27T23:46:57.480Z,18.00
2017-07-27T23:49:25.793Z,17.90
2017-07-27T23:51:54.052Z,17.80
2017-07-27T23:54:22.318Z,17.80
2017-07-27T23:56:50.610Z,17.80
2017-07-27T23:59:18.912Z,17.70
